sensor_id;sensor_type;location;lat;lon;timestamp;P1;durP1;ratioP1;P2;durP2;ratioP2
19973;SDS011;10148;47.694;9.442;2022-08-25T00:01:05;2.00;;;1.70;;
19973;SDS011;10148;47.694;9.442;2022-08-25T00:03:34;2.08;;;1.85;;
19973;SDS011;10148;47.694;9.442;2022-08-25T00:05:59;2.20;;;1.80;;
19973;SDS011;10148;47.694;9.442;2022-08-25T00:08:25;2.38;;;2.17;;
19973;SDS011;10148;47.694;9.442;2022-08-25T00:10:50;2.30;;;2.05;;
19973;SDS011;10148;47.694;9.442;2022-08-25T00:13:16;2.45;;;2.17;;
19973;SDS011;10148;47.694;9.442;2022-08-25T00:15:42;2.53;;;2.10;;
19973;SDS011;10148;47.694;9.442;2022-08-25T00:18:08;2.25;;;2.03;;
19973;SDS011;10148;47.694;9.442;2022-08-25T00:20:33;2.22;;;2.03;;
19973;SDS011;10148;47.694;9.442;2022-08-25T00:22:59;2.50;;;2.20;;
19973;SDS011;10148;47.694;9.442;2022-08-25T00:25:25;2.17;;;1.98;;
19973;SDS011;10148;47.694;9.442;2022-08-25T00:27:51;2.60;;;2.40;;
19973;SDS011;10148;47.694;9.442;2022-08-25T00:30:17;2.50;;;1.85;;
19973;SDS011;10148;47.694;9.442;2022-08-25T00:32:44;2.42;;;1.80;;
19973;SDS011;10148;47.694;9.442;2022-08-25T00:35:10;2.40;;;2.20;;
19973;SDS011;10148;47.694;9.442;2022-08-25T00:37:35;2.50;;;2.28;;
19973;SDS011;10148;47.694;9.442;2022-08-25T00:40:03;2.83;;;2.30;;
19973;SDS011;10148;47.694;9.442;2022-08-25T00:42:29;2.70;;;2.22;;
19973;SDS011;10148;47.694;9.442;2022-08-25T00:44:55;2.47;;;2.20;;
19973;SDS011;10148;47.694;9.442;2022-08-25T00:47:22;3.10;;;2.00;;
19973;SDS011;10148;47.694;9.442;2022-08-25T00:49:49;2.38;;;2.17;;
19973;SDS011;10148;47.694;9.442;2022-08-25T00:52:32;2.72;;;2.20;;
19973;SDS011;10148;47.694;9.442;2022-08-25T00:55:06;7.43;;;2.20;;
19973;SDS011;10148;47.694;9.442;2022-08-25T00:57:46;2.45;;;2.25;;
19973;SDS011;10148;47.694;9.442;2022-08-25T01:00:36;2.97;;;2.45;;
19973;SDS011;10148;47.694;9.442;2022-08-25T01:03:03;2.65;;;2.40;;
19973;SDS011;10148;47.694;9.442;2022-08-25T01:05:30;2.30;;;1.98;;
19973;SDS011;10148;47.694;9.442;2022-08-25T01:07:57;2.30;;;2.10;;
19973;SDS011;10148;47.694;9.442;2022-08-25T01:10:27;2.53;;;2.20;;
19973;SDS011;10148;47.694;9.442;2022-08-25T01:13:07;2.78;;;2.35;;
19973;SDS011;10148;47.694;9.442;2022-08-25T01:15:42;3.03;;;2.53;;
19973;SDS011;10148;47.694;9.442;2022-08-25T01:18:09;2.63;;;2.40;;
19973;SDS011;10148;47.694;9.442;2022-08-25T01:20:35;2.75;;;2.40;;
19973;SDS011;10148;47.694;9.442;2022-08-25T01:23:01;2.85;;;2.50;;
19973;SDS011;10148;47.694;9.442;2022-08-25T01:25:35;2.97;;;2.65;;
19973;SDS011;10148;47.694;9.442;2022-08-25T01:28:04;3.40;;;2.38;;
19973;SDS011;10148;47.694;9.442;2022-08-25T01:30:30;2.45;;;2.20;;
19973;SDS011;10148;47.694;9.442;2022-08-25T01:32:56;2.28;;;2.08;;
19973;SDS011;10148;47.694;9.442;2022-08-25T01:35:22;2.80;;;2.47;;
19973;SDS011;10148;47.694;9.442;2022-08-25T01:37:48;2.88;;;2.58;;
19973;SDS011;10148;47.694;9.442;2022-08-25T01:40:14;2.58;;;2.30;;
19973;SDS011;10148;47.694;9.442;2022-08-25T01:42:57;2.75;;;2.33;;
19973;SDS011;10148;47.694;9.442;2022-08-25T01:45:26;2.95;;;2.13;;
19973;SDS011;10148;47.694;9.442;2022-08-25T01:47:52;2.67;;;2.47;;
19973;SDS011;10148;47.694;9.442;2022-08-25T01:50:17;2.60;;;2.40;;
19973;SDS011;10148;47.694;9.442;2022-08-25T01:55:23;3.35;;;2.33;;
19973;SDS011;10148;47.694;9.442;2022-08-25T01:57:49;2.88;;;2.47;;
19973;SDS011;10148;47.694;9.442;2022-08-25T02:00:15;2.65;;;2.45;;
19973;SDS011;10148;47.694;9.442;2022-08-25T02:02:42;3.42;;;2.72;;
19973;SDS011;10148;47.694;9.442;2022-08-25T02:05:09;2.72;;;2.38;;
19973;SDS011;10148;47.694;9.442;2022-08-25T02:07:37;3.50;;;2.40;;
19973;SDS011;10148;47.694;9.442;2022-08-25T02:10:04;3.58;;;2.60;;
19973;SDS011;10148;47.694;9.442;2022-08-25T02:12:31;4.07;;;2.78;;
19973;SDS011;10148;47.694;9.442;2022-08-25T02:14:58;3.60;;;2.70;;
19973;SDS011;10148;47.694;9.442;2022-08-25T02:17:25;3.28;;;2.97;;
19973;SDS011;10148;47.694;9.442;2022-08-25T02:19:51;2.95;;;2.65;;
19973;SDS011;10148;47.694;9.442;2022-08-25T02:22:17;3.33;;;2.47;;
19973;SDS011;10148;47.694;9.442;2022-08-25T02:24:43;3.65;;;2.33;;
19973;SDS011;10148;47.694;9.442;2022-08-25T02:27:08;3.60;;;2.75;;
19973;SDS011;10148;47.694;9.442;2022-08-25T02:29:34;3.17;;;2.63;;
19973;SDS011;10148;47.694;9.442;2022-08-25T02:32:00;2.85;;;2.65;;
19973;SDS011;10148;47.694;9.442;2022-08-25T02:34:26;2.95;;;2.40;;
19973;SDS011;10148;47.694;9.442;2022-08-25T02:36:52;3.20;;;2.90;;
19973;SDS011;10148;47.694;9.442;2022-08-25T02:39:18;3.42;;;2.88;;
19973;SDS011;10148;47.694;9.442;2022-08-25T02:41:43;3.05;;;2.70;;
19973;SDS011;10148;47.694;9.442;2022-08-25T02:44:09;2.83;;;2.53;;
19973;SDS011;10148;47.694;9.442;2022-08-25T02:46:35;2.70;;;2.42;;
19973;SDS011;10148;47.694;9.442;2022-08-25T02:49:01;3.83;;;2.78;;
19973;SDS011;10148;47.694;9.442;2022-08-25T02:51:27;3.55;;;2.92;;
19973;SDS011;10148;47.694;9.442;2022-08-25T02:53:54;3.03;;;2.58;;
19973;SDS011;10148;47.694;9.442;2022-08-25T02:56:21;2.70;;;2.50;;
19973;SDS011;10148;47.694;9.442;2022-08-25T02:58:48;2.83;;;2.47;;
19973;SDS011;10148;47.694;9.442;2022-08-25T03:01:14;2.72;;;2.53;;
19973;SDS011;10148;47.694;9.442;2022-08-25T03:03:41;3.58;;;2.65;;
19973;SDS011;10148;47.694;9.442;2022-08-25T03:06:09;3.03;;;2.72;;
19973;SDS011;10148;47.694;9.442;2022-08-25T03:08:36;3.15;;;2.85;;
19973;SDS011;10148;47.694;9.442;2022-08-25T03:11:03;3.00;;;2.70;;
19973;SDS011;10148;47.694;9.442;2022-08-25T03:13:29;4.22;;;3.03;;
19973;SDS011;10148;47.694;9.442;2022-08-25T03:15:57;2.95;;;2.65;;
19973;SDS011;10148;47.694;9.442;2022-08-25T03:18:23;3.75;;;2.92;;
19973;SDS011;10148;47.694;9.442;2022-08-25T03:20:48;4.40;;;2.90;;
19973;SDS011;10148;47.694;9.442;2022-08-25T03:23:14;5.93;;;3.13;;
19973;SDS011;10148;47.694;9.442;2022-08-25T03:25:40;3.63;;;2.78;;
19973;SDS011;10148;47.694;9.442;2022-08-25T03:28:24;3.22;;;2.92;;
19973;SDS011;10148;47.694;9.442;2022-08-25T03:30:50;3.05;;;2.75;;
19973;SDS011;10148;47.694;9.442;2022-08-25T03:33:17;3.38;;;2.40;;
19973;SDS011;10148;47.694;9.442;2022-08-25T03:35:43;2.92;;;2.72;;
19973;SDS011;10148;47.694;9.442;2022-08-25T03:38:10;4.65;;;2.97;;
19973;SDS011;10148;47.694;9.442;2022-08-25T03:40:35;3.42;;;2.97;;
19973;SDS011;10148;47.694;9.442;2022-08-25T03:43:02;4.22;;;2.88;;
19973;SDS011;10148;47.694;9.442;2022-08-25T03:45:28;3.83;;;3.42;;
19973;SDS011;10148;47.694;9.442;2022-08-25T03:47:54;4.57;;;3.20;;
19973;SDS011;10148;47.694;9.442;2022-08-25T03:50:21;3.17;;;2.72;;
19973;SDS011;10148;47.694;9.442;2022-08-25T03:52:51;4.07;;;2.80;;
19973;SDS011;10148;47.694;9.442;2022-08-25T03:55:18;3.25;;;2.78;;
19973;SDS011;10148;47.694;9.442;2022-08-25T03:57:45;4.00;;;3.40;;
19973;SDS011;10148;47.694;9.442;2022-08-25T04:00:10;3.20;;;2.90;;
19973;SDS011;10148;47.694;9.442;2022-08-25T04:02:36;4.75;;;3.17;;
19973;SDS011;10148;47.694;9.442;2022-08-25T04:05:02;3.30;;;2.90;;
19973;SDS011;10148;47.694;9.442;2022-08-25T04:07:28;4.35;;;2.90;;
19973;SDS011;10148;47.694;9.442;2022-08-25T04:09:54;3.72;;;3.17;;
19973;SDS011;10148;47.694;9.442;2022-08-25T04:12:20;4.07;;;3.08;;
19973;SDS011;10148;47.694;9.442;2022-08-25T04:14:46;5.03;;;3.72;;
19973;SDS011;10148;47.694;9.442;2022-08-25T04:17:12;3.35;;;2.88;;
19973;SDS011;10148;47.694;9.442;2022-08-25T04:19:38;3.50;;;3.20;;
19973;SDS011;10148;47.694;9.442;2022-08-25T04:22:03;4.10;;;3.25;;
19973;SDS011;10148;47.694;9.442;2022-08-25T04:24:29;3.65;;;3.10;;
19973;SDS011;10148;47.694;9.442;2022-08-25T04:26:54;4.72;;;3.35;;
19973;SDS011;10148;47.694;9.442;2022-08-25T04:29:21;3.58;;;3.28;;
19973;SDS011;10148;47.694;9.442;2022-08-25T04:31:48;4.38;;;3.67;;
19973;SDS011;10148;47.694;9.442;2022-08-25T04:34:18;3.95;;;3.55;;
19973;SDS011;10148;47.694;9.442;2022-08-25T04:36:45;5.18;;;3.78;;
19973;SDS011;10148;47.694;9.442;2022-08-25T04:39:11;4.13;;;3.20;;
19973;SDS011;10148;47.694;9.442;2022-08-25T04:41:37;4.03;;;3.40;;
19973;SDS011;10148;47.694;9.442;2022-08-25T04:44:03;5.20;;;4.03;;
19973;SDS011;10148;47.694;9.442;2022-08-25T04:46:30;4.38;;;3.97;;
19973;SDS011;10148;47.694;9.442;2022-08-25T04:48:59;3.83;;;3.42;;
19973;SDS011;10148;47.694;9.442;2022-08-25T04:51:27;4.22;;;3.45;;
19973;SDS011;10148;47.694;9.442;2022-08-25T04:54:00;4.45;;;3.63;;
19973;SDS011;10148;47.694;9.442;2022-08-25T04:56:29;5.43;;;3.58;;
19973;SDS011;10148;47.694;9.442;2022-08-25T04:58:56;4.15;;;3.10;;
19973;SDS011;10148;47.694;9.442;2022-08-25T05:01:27;4.50;;;3.40;;
19973;SDS011;10148;47.694;9.442;2022-08-25T05:03:55;4.43;;;3.85;;
19973;SDS011;10148;47.694;9.442;2022-08-25T05:06:25;4.07;;;3.63;;
19973;SDS011;10148;47.694;9.442;2022-08-25T05:08:51;4.65;;;3.67;;
19973;SDS011;10148;47.694;9.442;2022-08-25T05:11:17;5.47;;;3.78;;
19973;SDS011;10148;47.694;9.442;2022-08-25T05:13:45;3.90;;;3.50;;
19973;SDS011;10148;47.694;9.442;2022-08-25T05:16:11;4.40;;;4.00;;
19973;SDS011;10148;47.694;9.442;2022-08-25T05:18:38;6.25;;;3.97;;
19973;SDS011;10148;47.694;9.442;2022-08-25T05:21:06;4.68;;;4.18;;
19973;SDS011;10148;47.694;9.442;2022-08-25T05:23:33;5.07;;;3.88;;
19973;SDS011;10148;47.694;9.442;2022-08-25T05:26:06;4.03;;;3.63;;
19973;SDS011;10148;47.694;9.442;2022-08-25T05:28:34;4.13;;;3.67;;
19973;SDS011;10148;47.694;9.442;2022-08-25T05:31:01;4.65;;;3.63;;
19973;SDS011;10148;47.694;9.442;2022-08-25T05:33:28;5.65;;;3.83;;
19973;SDS011;10148;47.694;9.442;2022-08-25T05:35:54;5.80;;;4.15;;
19973;SDS011;10148;47.694;9.442;2022-08-25T05:38:19;4.57;;;3.50;;
19973;SDS011;10148;47.694;9.442;2022-08-25T05:40:45;6.22;;;3.80;;
19973;SDS011;10148;47.694;9.442;2022-08-25T05:43:11;5.22;;;3.90;;
19973;SDS011;10148;47.694;9.442;2022-08-25T05:45:38;4.15;;;3.75;;
19973;SDS011;10148;47.694;9.442;2022-08-25T05:48:04;3.78;;;3.35;;
19973;SDS011;10148;47.694;9.442;2022-08-25T05:50:30;4.50;;;3.72;;
19973;SDS011;10148;47.694;9.442;2022-08-25T05:52:55;4.70;;;3.78;;
19973;SDS011;10148;47.694;9.442;2022-08-25T05:55:21;4.43;;;3.55;;
19973;SDS011;10148;47.694;9.442;2022-08-25T05:57:46;5.25;;;4.18;;
19973;SDS011;10148;47.694;9.442;2022-08-25T06:00:12;4.05;;;3.45;;
19973;SDS011;10148;47.694;9.442;2022-08-25T06:02:39;4.45;;;3.85;;
19973;SDS011;10148;47.694;9.442;2022-08-25T06:05:05;4.75;;;3.58;;
19973;SDS011;10148;47.694;9.442;2022-08-25T06:07:35;3.92;;;3.45;;
19973;SDS011;10148;47.694;9.442;2022-08-25T06:10:01;5.10;;;3.70;;
19973;SDS011;10148;47.694;9.442;2022-08-25T06:12:28;5.15;;;4.55;;
19973;SDS011;10148;47.694;9.442;2022-08-25T06:14:56;4.97;;;3.83;;
19973;SDS011;10148;47.694;9.442;2022-08-25T06:17:21;5.60;;;3.53;;
19973;SDS011;10148;47.694;9.442;2022-08-25T06:19:47;4.38;;;3.40;;
19973;SDS011;10148;47.694;9.442;2022-08-25T06:22:12;4.45;;;3.72;;
19973;SDS011;10148;47.694;9.442;2022-08-25T06:24:38;4.55;;;3.60;;
19973;SDS011;10148;47.694;9.442;2022-08-25T06:27:04;5.25;;;3.90;;
19973;SDS011;10148;47.694;9.442;2022-08-25T06:29:29;5.55;;;3.88;;
19973;SDS011;10148;47.694;9.442;2022-08-25T06:31:55;5.30;;;4.50;;
19973;SDS011;10148;47.694;9.442;2022-08-25T06:34:20;4.63;;;3.90;;
19973;SDS011;10148;47.694;9.442;2022-08-25T06:36:46;4.68;;;4.07;;
19973;SDS011;10148;47.694;9.442;2022-08-25T06:39:12;4.15;;;3.75;;
19973;SDS011;10148;47.694;9.442;2022-08-25T06:41:37;4.78;;;4.07;;
19973;SDS011;10148;47.694;9.442;2022-08-25T06:44:03;3.85;;;3.50;;
19973;SDS011;10148;47.694;9.442;2022-08-25T06:46:29;5.53;;;3.70;;
19973;SDS011;10148;47.694;9.442;2022-08-25T06:48:55;4.53;;;4.05;;
19973;SDS011;10148;47.694;9.442;2022-08-25T06:51:22;5.18;;;3.70;;
19973;SDS011;10148;47.694;9.442;2022-08-25T06:53:50;4.32;;;3.80;;
19973;SDS011;10148;47.694;9.442;2022-08-25T06:56:17;4.78;;;3.80;;
19973;SDS011;10148;47.694;9.442;2022-08-25T06:58:44;4.35;;;3.95;;
19973;SDS011;10148;47.694;9.442;2022-08-25T07:01:12;4.47;;;4.03;;
19973;SDS011;10148;47.694;9.442;2022-08-25T07:03:39;4.78;;;3.60;;
19973;SDS011;10148;47.694;9.442;2022-08-25T07:06:06;4.70;;;4.00;;
19973;SDS011;10148;47.694;9.442;2022-08-25T07:08:32;4.05;;;3.65;;
19973;SDS011;10148;47.694;9.442;2022-08-25T07:11:03;3.92;;;3.55;;
19973;SDS011;10148;47.694;9.442;2022-08-25T07:13:30;7.03;;;4.28;;
19973;SDS011;10148;47.694;9.442;2022-08-25T07:15:56;3.95;;;3.45;;
19973;SDS011;10148;47.694;9.442;2022-08-25T07:18:21;4.25;;;3.83;;
19973;SDS011;10148;47.694;9.442;2022-08-25T07:20:47;3.90;;;3.50;;
19973;SDS011;10148;47.694;9.442;2022-08-25T07:23:13;3.60;;;3.30;;
19973;SDS011;10148;47.694;9.442;2022-08-25T07:25:39;4.03;;;3.63;;
19973;SDS011;10148;47.694;9.442;2022-08-25T07:28:04;3.83;;;3.42;;
19973;SDS011;10148;47.694;9.442;2022-08-25T07:30:30;4.03;;;3.60;;
19973;SDS011;10148;47.694;9.442;2022-08-25T07:32:56;4.00;;;3.42;;
19973;SDS011;10148;47.694;9.442;2022-08-25T07:35:22;4.60;;;3.80;;
19973;SDS011;10148;47.694;9.442;2022-08-25T07:37:51;4.18;;;3.78;;
19973;SDS011;10148;47.694;9.442;2022-08-25T07:40:27;4.47;;;3.90;;
19973;SDS011;10148;47.694;9.442;2022-08-25T07:42:56;4.28;;;3.88;;
19973;SDS011;10148;47.694;9.442;2022-08-25T07:45:25;7.45;;;3.67;;
19973;SDS011;10148;47.694;9.442;2022-08-25T07:50:24;5.97;;;3.45;;
19973;SDS011;10148;47.694;9.442;2022-08-25T07:52:50;4.10;;;3.70;;
19973;SDS011;10148;47.694;9.442;2022-08-25T07:55:16;4.10;;;3.20;;
19973;SDS011;10148;47.694;9.442;2022-08-25T07:57:42;4.80;;;3.70;;
19973;SDS011;10148;47.694;9.442;2022-08-25T08:00:08;4.25;;;3.78;;
19973;SDS011;10148;47.694;9.442;2022-08-25T08:02:37;3.45;;;3.10;;
19973;SDS011;10148;47.694;9.442;2022-08-25T08:05:03;3.30;;;3.00;;
19973;SDS011;10148;47.694;9.442;2022-08-25T08:07:29;3.60;;;3.30;;
19973;SDS011;10148;47.694;9.442;2022-08-25T08:09:55;4.90;;;3.88;;
19973;SDS011;10148;47.694;9.442;2022-08-25T08:12:22;4.57;;;3.80;;
19973;SDS011;10148;47.694;9.442;2022-08-25T08:14:49;5.07;;;3.55;;
19973;SDS011;10148;47.694;9.442;2022-08-25T08:17:15;3.67;;;3.38;;
19973;SDS011;10148;47.694;9.442;2022-08-25T08:19:40;4.70;;;3.60;;
19973;SDS011;10148;47.694;9.442;2022-08-25T08:22:06;3.58;;;3.15;;
19973;SDS011;10148;47.694;9.442;2022-08-25T08:24:33;3.45;;;3.15;;
19973;SDS011;10148;47.694;9.442;2022-08-25T08:27:03;3.75;;;3.22;;
19973;SDS011;10148;47.694;9.442;2022-08-25T08:29:30;4.38;;;3.22;;
19973;SDS011;10148;47.694;9.442;2022-08-25T08:31:56;3.72;;;3.33;;
19973;SDS011;10148;47.694;9.442;2022-08-25T08:34:22;3.45;;;2.90;;
19973;SDS011;10148;47.694;9.442;2022-08-25T08:36:48;3.38;;;3.08;;
19973;SDS011;10148;47.694;9.442;2022-08-25T08:39:13;3.33;;;3.03;;
19973;SDS011;10148;47.694;9.442;2022-08-25T08:47:17;3.80;;;3.50;;
19973;SDS011;10148;47.694;9.442;2022-08-25T08:50:17;3.67;;;3.38;;
19973;SDS011;10148;47.694;9.442;2022-08-25T08:53:13;3.55;;;3.22;;
19973;SDS011;10148;47.694;9.442;2022-08-25T08:55:52;3.25;;;2.95;;
19973;SDS011;10148;47.694;9.442;2022-08-25T08:58:26;4.70;;;3.50;;
19973;SDS011;10148;47.694;9.442;2022-08-25T09:01:04;3.38;;;3.08;;
19973;SDS011;10148;47.694;9.442;2022-08-25T09:03:32;5.22;;;3.05;;
19973;SDS011;10148;47.694;9.442;2022-08-25T09:06:07;4.10;;;3.17;;
19973;SDS011;10148;47.694;9.442;2022-08-25T09:08:37;10.15;;;6.82;;
19973;SDS011;10148;47.694;9.442;2022-08-25T09:17:00;3.65;;;3.35;;
19973;SDS011;10148;47.694;9.442;2022-08-25T09:21:56;3.30;;;3.00;;
19973;SDS011;10148;47.694;9.442;2022-08-25T09:24:35;2.65;;;2.45;;
19973;SDS011;10148;47.694;9.442;2022-08-25T09:27:25;2.92;;;2.72;;
19973;SDS011;10148;47.694;9.442;2022-08-25T09:30:16;3.40;;;3.10;;
19973;SDS011;10148;47.694;9.442;2022-08-25T09:32:46;3.45;;;2.95;;
19973;SDS011;10148;47.694;9.442;2022-08-25T09:35:18;3.40;;;2.67;;
19973;SDS011;10148;47.694;9.442;2022-08-25T09:37:58;2.97;;;2.67;;
19973;SDS011;10148;47.694;9.442;2022-08-25T09:40:27;2.78;;;2.42;;
19973;SDS011;10148;47.694;9.442;2022-08-25T09:42:56;3.75;;;2.50;;
19973;SDS011;10148;47.694;9.442;2022-08-25T09:48:20;2.50;;;2.30;;
19973;SDS011;10148;47.694;9.442;2022-08-25T09:50:49;3.10;;;2.35;;
19973;SDS011;10148;47.694;9.442;2022-08-25T09:53:16;4.43;;;2.92;;
19973;SDS011;10148;47.694;9.442;2022-08-25T09:55:42;3.15;;;2.85;;
19973;SDS011;10148;47.694;9.442;2022-08-25T09:58:17;3.83;;;2.70;;
19973;SDS011;10148;47.694;9.442;2022-08-25T10:00:58;3.50;;;2.90;;
19973;SDS011;10148;47.694;9.442;2022-08-25T10:03:52;3.00;;;2.80;;
19973;SDS011;10148;47.694;9.442;2022-08-25T10:06:22;2.90;;;2.45;;
19973;SDS011;10148;47.694;9.442;2022-08-25T10:16:44;4.22;;;3.83;;
19973;SDS011;10148;47.694;9.442;2022-08-25T10:19:13;4.20;;;3.75;;
19973;SDS011;10148;47.694;9.442;2022-08-25T10:22:01;5.00;;;3.78;;
19973;SDS011;10148;47.694;9.442;2022-08-25T10:24:26;4.10;;;3.80;;
19973;SDS011;10148;47.694;9.442;2022-08-25T10:30:02;4.13;;;3.63;;
19973;SDS011;10148;47.694;9.442;2022-08-25T10:32:56;4.10;;;3.78;;
19973;SDS011;10148;47.694;9.442;2022-08-25T10:35:56;4.40;;;4.00;;
19973;SDS011;10148;47.694;9.442;2022-08-25T10:50:26;5.40;;;4.03;;
19973;SDS011;10148;47.694;9.442;2022-08-25T11:04:23;3.50;;;3.20;;
19973;SDS011;10148;47.694;9.442;2022-08-25T11:07:09;4.18;;;3.78;;
19973;SDS011;10148;47.694;9.442;2022-08-25T11:09:56;5.60;;;3.83;;
19973;SDS011;10148;47.694;9.442;2022-08-25T11:12:29;4.18;;;3.70;;
19973;SDS011;10148;47.694;9.442;2022-08-25T11:15:00;4.50;;;3.30;;
19973;SDS011;10148;47.694;9.442;2022-08-25T11:17:37;2.70;;;2.50;;
19973;SDS011;10148;47.694;9.442;2022-08-25T11:20:10;6.32;;;3.53;;
19973;SDS011;10148;47.694;9.442;2022-08-25T11:25:20;3.28;;;2.95;;
19973;SDS011;10148;47.694;9.442;2022-08-25T11:28:02;3.42;;;2.85;;
19973;SDS011;10148;47.694;9.442;2022-08-25T11:30:40;3.13;;;2.70;;
19973;SDS011;10148;47.694;9.442;2022-08-25T11:33:05;2.67;;;2.40;;
19973;SDS011;10148;47.694;9.442;2022-08-25T11:35:37;4.85;;;2.53;;
19973;SDS011;10148;47.694;9.442;2022-08-25T11:49:57;2.50;;;2.30;;
19973;SDS011;10148;47.694;9.442;2022-08-25T11:55:42;2.40;;;2.20;;
19973;SDS011;10148;47.694;9.442;2022-08-25T11:58:14;2.70;;;2.35;;
19973;SDS011;10148;47.694;9.442;2022-08-25T12:00:58;2.03;;;1.92;;
19973;SDS011;10148;47.694;9.442;2022-08-25T12:06:22;4.30;;;2.40;;
19973;SDS011;10148;47.694;9.442;2022-08-25T12:27:15;3.28;;;1.75;;
19973;SDS011;10148;47.694;9.442;2022-08-25T12:38:15;2.40;;;2.20;;
19973;SDS011;10148;47.694;9.442;2022-08-25T12:45:45;3.05;;;1.98;;
19973;SDS011;10148;47.694;9.442;2022-08-25T12:50:56;1.85;;;1.75;;
19973;SDS011;10148;47.694;9.442;2022-08-25T12:53:40;2.30;;;2.10;;
19973;SDS011;10148;47.694;9.442;2022-08-25T13:01:46;1.77;;;1.67;;
19973;SDS011;10148;47.694;9.442;2022-08-25T13:04:39;1.80;;;1.70;;
19973;SDS011;10148;47.694;9.442;2022-08-25T13:12:55;2.08;;;1.70;;
19973;SDS011;10148;47.694;9.442;2022-08-25T13:15:41;3.13;;;1.85;;
19973;SDS011;10148;47.694;9.442;2022-08-25T13:20:43;2.35;;;1.70;;
19973;SDS011;10148;47.694;9.442;2022-08-25T13:23:11;2.78;;;2.00;;
19973;SDS011;10148;47.694;9.442;2022-08-25T13:25:45;3.05;;;1.35;;
19973;SDS011;10148;47.694;9.442;2022-08-25T13:28:19;1.73;;;1.63;;
19973;SDS011;10148;47.694;9.442;2022-08-25T13:30:54;1.67;;;1.52;;
19973;SDS011;10148;47.694;9.442;2022-08-25T13:33:25;2.15;;;1.40;;
19973;SDS011;10148;47.694;9.442;2022-08-25T13:35:53;1.35;;;1.25;;
19973;SDS011;10148;47.694;9.442;2022-08-25T13:38:38;1.90;;;1.20;;
19973;SDS011;10148;47.694;9.442;2022-08-25T13:41:05;1.33;;;1.25;;
19973;SDS011;10148;47.694;9.442;2022-08-25T13:43:32;1.48;;;1.38;;
19973;SDS011;10148;47.694;9.442;2022-08-25T13:45:59;1.35;;;1.20;;
19973;SDS011;10148;47.694;9.442;2022-08-25T13:48:35;2.83;;;1.65;;
19973;SDS011;10148;47.694;9.442;2022-08-25T13:51:15;4.20;;;1.40;;
19973;SDS011;10148;47.694;9.442;2022-08-25T13:53:50;1.73;;;1.40;;
19973;SDS011;10148;47.694;9.442;2022-08-25T13:56:25;1.70;;;1.40;;
19973;SDS011;10148;47.694;9.442;2022-08-25T13:58:57;1.50;;;1.40;;
19973;SDS011;10148;47.694;9.442;2022-08-25T14:01:26;1.40;;;1.30;;
19973;SDS011;10148;47.694;9.442;2022-08-25T14:07:23;2.20;;;1.90;;
19973;SDS011;10148;47.694;9.442;2022-08-25T14:09:55;1.50;;;1.40;;
19973;SDS011;10148;47.694;9.442;2022-08-25T14:12:32;1.70;;;1.60;;
19973;SDS011;10148;47.694;9.442;2022-08-25T14:17:43;1.77;;;1.58;;
19973;SDS011;10148;47.694;9.442;2022-08-25T14:20:19;1.88;;;1.58;;
19973;SDS011;10148;47.694;9.442;2022-08-25T14:22:52;2.45;;;1.77;;
19973;SDS011;10148;47.694;9.442;2022-08-25T14:25:22;1.50;;;1.40;;
19973;SDS011;10148;47.694;9.442;2022-08-25T14:27:55;1.63;;;1.50;;
19973;SDS011;10148;47.694;9.442;2022-08-25T14:30:22;1.65;;;1.55;;
19973;SDS011;10148;47.694;9.442;2022-08-25T14:32:48;1.83;;;1.40;;
19973;SDS011;10148;47.694;9.442;2022-08-25T14:35:13;1.85;;;1.50;;
19973;SDS011;10148;47.694;9.442;2022-08-25T14:37:39;1.67;;;1.58;;
19973;SDS011;10148;47.694;9.442;2022-08-25T14:40:04;1.92;;;1.10;;
19973;SDS011;10148;47.694;9.442;2022-08-25T14:42:30;2.70;;;1.35;;
19973;SDS011;10148;47.694;9.442;2022-08-25T14:44:56;1.60;;;1.50;;
19973;SDS011;10148;47.694;9.442;2022-08-25T14:47:21;1.92;;;1.30;;
19973;SDS011;10148;47.694;9.442;2022-08-25T14:49:47;1.60;;;1.50;;
19973;SDS011;10148;47.694;9.442;2022-08-25T14:52:23;1.73;;;1.38;;
19973;SDS011;10148;47.694;9.442;2022-08-25T14:54:52;1.55;;;1.40;;
19973;SDS011;10148;47.694;9.442;2022-08-25T14:57:18;1.38;;;1.27;;
19973;SDS011;10148;47.694;9.442;2022-08-25T14:59:44;1.75;;;1.17;;
19973;SDS011;10148;47.694;9.442;2022-08-25T15:02:11;1.55;;;1.45;;
19973;SDS011;10148;47.694;9.442;2022-08-25T15:04:42;1.80;;;1.30;;
19973;SDS011;10148;47.694;9.442;2022-08-25T15:07:13;2.83;;;1.50;;
19973;SDS011;10148;47.694;9.442;2022-08-25T15:09:58;2.50;;;1.50;;
19973;SDS011;10148;47.694;9.442;2022-08-25T15:12:23;1.60;;;1.40;;
19973;SDS011;10148;47.694;9.442;2022-08-25T15:14:49;1.52;;;1.30;;
19973;SDS011;10148;47.694;9.442;2022-08-25T15:17:14;1.60;;;1.50;;
19973;SDS011;10148;47.694;9.442;2022-08-25T15:19:40;2.10;;;1.30;;
19973;SDS011;10148;47.694;9.442;2022-08-25T15:22:06;1.60;;;1.20;;
19973;SDS011;10148;47.694;9.442;2022-08-25T15:24:32;1.50;;;1.40;;
19973;SDS011;10148;47.694;9.442;2022-08-25T15:26:59;1.63;;;1.52;;
19973;SDS011;10148;47.694;9.442;2022-08-25T15:29:26;1.60;;;1.50;;
19973;SDS011;10148;47.694;9.442;2022-08-25T15:31:54;1.40;;;1.30;;
19973;SDS011;10148;47.694;9.442;2022-08-25T15:34:20;1.35;;;1.25;;
19973;SDS011;10148;47.694;9.442;2022-08-25T15:36:46;1.40;;;1.30;;
19973;SDS011;10148;47.694;9.442;2022-08-25T15:39:11;1.15;;;1.10;;
19973;SDS011;10148;47.694;9.442;2022-08-25T15:41:37;1.20;;;1.13;;
19973;SDS011;10148;47.694;9.442;2022-08-25T15:44:03;1.40;;;1.30;;
19973;SDS011;10148;47.694;9.442;2022-08-25T15:46:30;1.30;;;1.20;;
19973;SDS011;10148;47.694;9.442;2022-08-25T15:48:56;1.33;;;1.23;;
19973;SDS011;10148;47.694;9.442;2022-08-25T15:51:23;1.15;;;1.13;;
19973;SDS011;10148;47.694;9.442;2022-08-25T15:53:50;1.40;;;1.30;;
19973;SDS011;10148;47.694;9.442;2022-08-25T15:56:15;1.88;;;1.30;;
19973;SDS011;10148;47.694;9.442;2022-08-25T15:58:43;1.70;;;1.60;;
19973;SDS011;10148;47.694;9.442;2022-08-25T16:01:16;1.48;;;1.38;;
19973;SDS011;10148;47.694;9.442;2022-08-25T16:03:44;1.65;;;1.50;;
19973;SDS011;10148;47.694;9.442;2022-08-25T16:06:10;1.50;;;1.40;;
19973;SDS011;10148;47.694;9.442;2022-08-25T16:08:36;1.58;;;1.42;;
19973;SDS011;10148;47.694;9.442;2022-08-25T16:11:02;1.50;;;1.40;;
19973;SDS011;10148;47.694;9.442;2022-08-25T16:13:29;1.60;;;1.50;;
19973;SDS011;10148;47.694;9.442;2022-08-25T16:15:56;2.80;;;1.75;;
19973;SDS011;10148;47.694;9.442;2022-08-25T16:18:23;2.88;;;1.88;;
19973;SDS011;10148;47.694;9.442;2022-08-25T16:20:49;2.10;;;1.83;;
19973;SDS011;10148;47.694;9.442;2022-08-25T16:23:16;2.28;;;1.60;;
19973;SDS011;10148;47.694;9.442;2022-08-25T16:25:45;1.98;;;1.65;;
19973;SDS011;10148;47.694;9.442;2022-08-25T16:28:12;1.60;;;1.38;;
19973;SDS011;10148;47.694;9.442;2022-08-25T16:30:39;1.65;;;1.50;;
19973;SDS011;10148;47.694;9.442;2022-08-25T16:33:11;1.75;;;1.50;;
19973;SDS011;10148;47.694;9.442;2022-08-25T16:35:36;1.65;;;1.45;;
19973;SDS011;10148;47.694;9.442;2022-08-25T16:38:02;2.25;;;2.05;;
19973;SDS011;10148;47.694;9.442;2022-08-25T16:40:28;1.85;;;1.48;;
19973;SDS011;10148;47.694;9.442;2022-08-25T16:42:55;1.83;;;1.70;;
19973;SDS011;10148;47.694;9.442;2022-08-25T16:45:21;1.58;;;1.48;;
19973;SDS011;10148;47.694;9.442;2022-08-25T16:47:47;1.50;;;1.40;;
19973;SDS011;10148;47.694;9.442;2022-08-25T16:50:14;1.50;;;1.40;;
19973;SDS011;10148;47.694;9.442;2022-08-25T16:52:39;1.50;;;1.40;;
19973;SDS011;10148;47.694;9.442;2022-08-25T16:55:25;1.88;;;1.38;;
19973;SDS011;10148;47.694;9.442;2022-08-25T16:57:57;1.50;;;1.40;;
19973;SDS011;10148;47.694;9.442;2022-08-25T17:00:25;2.85;;;1.83;;
19973;SDS011;10148;47.694;9.442;2022-08-25T17:02:58;2.50;;;1.80;;
19973;SDS011;10148;47.694;9.442;2022-08-25T17:05:29;1.60;;;1.50;;
19973;SDS011;10148;47.694;9.442;2022-08-25T17:07:58;3.05;;;2.03;;
19973;SDS011;10148;47.694;9.442;2022-08-25T17:10:42;2.92;;;2.20;;